Terminal Aerodrome Forecast
Issued by NWS Shreveport, LA

Home | Current Version | Previous Version | Text Only | Print | Product List | Glossary On
Versions: 1 2 3 4 5 6 7 8 9 10 11 12 13
000
FTUS44 KSHV 051138
TAFELD
TAF
KELD 051138Z 0512/0612 33005KT P6SM SKC
     FM051700 34010KT P6SM SKC
     FM060000 33004KT P6SM SKC
     FM060300 VRB03KT P6SM SKC=

USA.gov is the U.S. government's official web portal to all federal, state and local government web resources and services.